Mlle Samantha Cortial

Mlle Samantha Cortial

Statistiques 2019

  • Courses courues : 55
  • Nb de victoires : 2
  • Nb de places : 9
  • Écart gagnant : 24
  • Réussite à la gagne : 4%
  • Réussite à la place : 16%
Musique : Dm 0m 5m 9m Dm Dm 5m 4m Dm 2m 7m 6m Dm 9m Tm 2m 8m 0m
DateRangCatégorieAlloc.Dist.HippodromeChevalRed. KmSpé.
16/10/19 D Trot 19 000€ 2 850m Feurs Dague de Pouline Monté lire

A été sanctionnée au premier passage en face.

06/10/19 0 Mixte 14 000€ 2 625m Paray Le Monial Gracieuse Laura Monté
17/09/19 5 Trot 29 000€ 2 850m Vincennes Grace de Claivince 1'18"4 Monté lire

N'a été qu'une simple figurante au sein du peloton.

16/09/19 9 Trot 19 000€ 2 650m L'Isle Sur Sorgue Cesar Turgot Monté
15/09/19 D Trot 13 000€ 2 925m Chateauroux Darla de Piervive Monté
14/09/19 D Trot 26 000€ 2 975m Vichy Vancouver Keryvon Monté
01/09/19 5 Trot 15 000€ 2 225m Feurs Grace de Claivince 1'18"8 Monté
31/08/19 4 Trot 22 000€ 2 950m Vichy Eleganza Captain 1'17"2 Monté
23/08/19 D Trot 17 000€ 2 675m Divonne Les Bains Dania du Lot Monté
20/08/19 2 Trot 26 000€ 2 700m Divonne Les Bains Vancouver Keryvon 1'14"7 Monté
18/08/19 7 Trot 13 000€ 2 100m Divonne Les Bains Electro Cadence 1'23"7 Monté
15/08/19 6 Trot 13 000€ 2 675m La Clayette Diction Haufor Monté
06/08/19 D Trot 18 000€ 2 000m Aix Les Bains Disco des Taureaux Monté
29/07/19 9 Trot 12 000€ 2 000m Aix Les Bains Flashy des Brunets Monté
02/06/19 T Trot 13 000€ 2 825m Bollene Calicia du Sire Monté
30/05/19 2 Trot 17 000€ 3 025m Montlucon Neris Come On du Vallon Monté
26/05/19 8 Trot 13 000€ 2 850m Lignieres Fil des Malberaux 1'19"4 Monté
21/05/19 0 Trot 24 000€ 2 975m Vichy Bonviva Monté
19/05/19 D Trot 14 000€ 2 850m Lyon Parilly Fil des Malberaux Monté
18/05/19 8 Trot 20 000€ 2 200m Vichy Canaille de Morge 1'16"6 Monté
15/05/19 3 Trot 29 000€ 2 400m Marseille Borely Vancouver Keryvon 1'14"8 Monté
14/05/19 6 Trot 24 000€ 2 950m Vichy Bella Cruz 1'16"5 Monté
11/05/19 8 Trot 18 000€ 2 975m Vichy Ehtiva des Budents 1'17"2 Monté
03/05/19 6 Mixte 33 000€ 2 850m Lyon Parilly Boccador 1'16"5 Monté
01/05/19 1 Mixte 14 000€ 2 650m Paray Le Monial Disco des Taureaux 1'17"5 Monté
30/04/19 6 Trot 20 000€ 2 675m Saint Galmier Come On du Vallon 1'18"9 Monté
27/04/19 D Trot 14 000€ 2 600m Moulins Epson d'hague Monté
26/04/19 4 Trot 18 000€ 2 725m Lyon La Soie Come Back Money 1'16"7 Monté
21/04/19 4 Trot 14 000€ 2 675m Carpentras Chantereine Monté
12/04/19 3 Trot 18 000€ 2 725m Lyon La Soie Ehtiva des Budents 1'17"8 Monté
08/04/19 3 Trot 18 000€ 2 225m Feurs Fil des Malberaux 1'16"4 Monté
07/04/19 8 Trot 18 000€ 2 650m Oraison Cesar Turgot 1'24"5 Monté
05/04/19 4 Trot 23 000€ 2 025m Saint Galmier Dgin du Caux 1'15"7 Monté
28/03/19 7 Trot 20 000€ 2 050m Lyon La Soie Epia de Touchyvon 1'19"6 Monté
24/03/19 1 Trot 13 000€ 2 850m Feurs Fil des Malberaux 1'17"8 Monté
22/03/19 7 Trot 42 000€ 2 200m Vincennes Candy Oaks 1'13"8 Monté lire

Une des animatrices, a marqué le pas dans le tournant final.

19/03/19 4 Trot 20 000€ 2 850m Hyeres Cesar Turgot 1'18"1 Monté
17/03/19 6 Mixte 16 000€ 2 750m Nimes Dgin du Caux 1'19"6 Monté
14/03/19 D Trot 18 000€ 2 850m Lyon Parilly Denver de l'Iton Monté
10/03/19 7 Mixte 18 000€ 2 700m Chatillon Colibri Madrik 1'17"0 Monté
04/03/19 D Trot 18 000€ 2 650m Saint Galmier Elixir Beaujolais Monté
03/03/19 3 Trot 16 000€ 2 650m Agen Darla de Piervive 1'15"7 Monté lire

Longtemps en retrait, a progressé en face puis a bien conclu.

17/02/19 8 Trot 10 000€ 2 425m Montauban Eclair d'Espace Monté
16/02/19 7 Trot 18 000€ 2 650m Saint Galmier Denver de l'Iton 1'18"6 Monté
08/02/19 9 Trot 23 000€ 2 950m Cagnes Sur Mer Driverigo d'Eam 1'17"1 Monté lire

N'a été qu'un simple figurant au sein du peloton.

03/02/19 D Trot 16 000€ 2 700m Lyon La Soie Cherif Griff Monté
03/02/19 6 Trot 13 000€ 2 700m Lyon La Soie Elixir Beaujolais 1'18"9 Monté
22/01/19 0 Trot 50 000€ 2 700m Vincennes Velina Monté lire

Longtemps en queue de peloton, a progressé en dehors en plaine puis a cédé au sommet de la montée.

21/01/19 5 Trot 21 000€ 2 650m Marseille Vivaux Driverigo d'Eam 1'17"5 Monté
16/01/19 D Trot 17 000€ 2 650m Marseille Vivaux Chouchou Loulou Monté lire

Jamais menaçant, a été sanctionné avant la fin du premier tour.